sensor_id;sensor_type;location;lat;lon;timestamp;P1;durP1;ratioP1;P2;durP2;ratioP2
12196;SDS011;6161;43.014;25.840;2022-11-15T00:00:13;4.87;;;2.77;;
12196;SDS011;6161;43.014;25.840;2022-11-15T00:02:39;3.77;;;3.00;;
12196;SDS011;6161;43.014;25.840;2022-11-15T00:05:04;4.43;;;2.70;;
12196;SDS011;6161;43.014;25.840;2022-11-15T00:07:29;3.07;;;2.67;;
12196;SDS011;6161;43.014;25.840;2022-11-15T00:09:54;3.40;;;2.83;;
12196;SDS011;6161;43.014;25.840;2022-11-15T00:12:20;3.93;;;2.90;;
12196;SDS011;6161;43.014;25.840;2022-11-15T00:14:45;3.37;;;3.07;;
12196;SDS011;6161;43.014;25.840;2022-11-15T00:17:11;3.57;;;2.73;;
12196;SDS011;6161;43.014;25.840;2022-11-15T00:19:36;3.00;;;2.70;;
12196;SDS011;6161;43.014;25.840;2022-11-15T00:22:02;7.30;;;3.27;;
12196;SDS011;6161;43.014;25.840;2022-11-15T00:24:27;6.73;;;3.23;;
12196;SDS011;6161;43.014;25.840;2022-11-15T00:26:52;3.83;;;2.93;;
12196;SDS011;6161;43.014;25.840;2022-11-15T00:29:17;4.43;;;3.00;;
12196;SDS011;6161;43.014;25.840;2022-11-15T00:31:43;6.03;;;3.60;;
12196;SDS011;6161;43.014;25.840;2022-11-15T00:34:09;3.33;;;2.73;;
12196;SDS011;6161;43.014;25.840;2022-11-15T00:36:34;4.47;;;3.00;;
12196;SDS011;6161;43.014;25.840;2022-11-15T00:38:59;4.13;;;3.27;;
12196;SDS011;6161;43.014;25.840;2022-11-15T00:41:25;4.30;;;3.53;;
12196;SDS011;6161;43.014;25.840;2022-11-15T00:43:50;4.37;;;3.10;;
12196;SDS011;6161;43.014;25.840;2022-11-15T00:46:16;3.53;;;3.00;;
12196;SDS011;6161;43.014;25.840;2022-11-15T00:48:41;4.07;;;3.27;;
12196;SDS011;6161;43.014;25.840;2022-11-15T00:51:06;4.87;;;3.27;;
12196;SDS011;6161;43.014;25.840;2022-11-15T00:53:32;4.87;;;3.03;;
12196;SDS011;6161;43.014;25.840;2022-11-15T00:55:57;3.10;;;2.80;;
12196;SDS011;6161;43.014;25.840;2022-11-15T00:58:22;3.03;;;2.53;;
12196;SDS011;6161;43.014;25.840;2022-11-15T01:00:48;5.70;;;3.20;;
12196;SDS011;6161;43.014;25.840;2022-11-15T01:03:13;6.10;;;3.20;;
12196;SDS011;6161;43.014;25.840;2022-11-15T01:05:38;5.60;;;3.53;;
12196;SDS011;6161;43.014;25.840;2022-11-15T01:08:04;5.27;;;3.63;;
12196;SDS011;6161;43.014;25.840;2022-11-15T01:10:29;4.83;;;3.53;;
12196;SDS011;6161;43.014;25.840;2022-11-15T01:12:54;4.73;;;2.97;;
12196;SDS011;6161;43.014;25.840;2022-11-15T01:15:20;5.53;;;3.30;;
12196;SDS011;6161;43.014;25.840;2022-11-15T01:17:45;4.90;;;3.27;;
12196;SDS011;6161;43.014;25.840;2022-11-15T01:20:11;4.43;;;3.27;;
12196;SDS011;6161;43.014;25.840;2022-11-15T01:22:36;5.27;;;3.23;;
12196;SDS011;6161;43.014;25.840;2022-11-15T01:25:01;4.80;;;3.10;;
12196;SDS011;6161;43.014;25.840;2022-11-15T01:27:27;4.53;;;3.03;;
12196;SDS011;6161;43.014;25.840;2022-11-15T01:29:52;3.97;;;3.43;;
12196;SDS011;6161;43.014;25.840;2022-11-15T01:32:17;3.67;;;3.27;;
12196;SDS011;6161;43.014;25.840;2022-11-15T01:34:43;3.90;;;3.23;;
12196;SDS011;6161;43.014;25.840;2022-11-15T01:37:08;4.30;;;3.47;;
12196;SDS011;6161;43.014;25.840;2022-11-15T01:39:33;4.40;;;2.97;;
12196;SDS011;6161;43.014;25.840;2022-11-15T01:41:59;5.37;;;3.00;;
12196;SDS011;6161;43.014;25.840;2022-11-15T01:46:55;3.33;;;2.83;;
12196;SDS011;6161;43.014;25.840;2022-11-15T01:49:21;4.67;;;3.80;;
12196;SDS011;6161;43.014;25.840;2022-11-15T01:51:47;3.40;;;2.63;;
12196;SDS011;6161;43.014;25.840;2022-11-15T01:54:14;5.77;;;3.57;;
12196;SDS011;6161;43.014;25.840;2022-11-15T01:56:47;3.50;;;3.00;;
12196;SDS011;6161;43.014;25.840;2022-11-15T01:59:14;4.30;;;3.17;;
12196;SDS011;6161;43.014;25.840;2022-11-15T02:01:39;3.77;;;3.20;;
12196;SDS011;6161;43.014;25.840;2022-11-15T02:04:07;3.43;;;3.03;;
12196;SDS011;6161;43.014;25.840;2022-11-15T02:06:35;5.73;;;3.47;;
12196;SDS011;6161;43.014;25.840;2022-11-15T02:09:01;4.40;;;3.00;;
12196;SDS011;6161;43.014;25.840;2022-11-15T02:11:26;4.00;;;3.40;;
12196;SDS011;6161;43.014;25.840;2022-11-15T02:13:52;5.43;;;3.63;;
12196;SDS011;6161;43.014;25.840;2022-11-15T02:18:54;5.20;;;3.20;;
12196;SDS011;6161;43.014;25.840;2022-11-15T02:39:51;5.17;;;3.03;;
12196;SDS011;6161;43.014;25.840;2022-11-15T02:42:23;4.50;;;2.83;;
12196;SDS011;6161;43.014;25.840;2022-11-15T02:45:09;4.50;;;3.00;;
12196;SDS011;6161;43.014;25.840;2022-11-15T02:47:37;5.07;;;2.80;;
12196;SDS011;6161;43.014;25.840;2022-11-15T02:50:07;4.17;;;3.27;;
12196;SDS011;6161;43.014;25.840;2022-11-15T02:52:35;5.93;;;2.87;;
12196;SDS011;6161;43.014;25.840;2022-11-15T02:55:00;6.23;;;3.50;;
12196;SDS011;6161;43.014;25.840;2022-11-15T03:00:11;4.30;;;3.30;;
12196;SDS011;6161;43.014;25.840;2022-11-15T03:05:04;3.47;;;3.03;;
12196;SDS011;6161;43.014;25.840;2022-11-15T03:12:37;4.87;;;3.10;;
12196;SDS011;6161;43.014;25.840;2022-11-15T03:15:09;3.30;;;2.90;;
12196;SDS011;6161;43.014;25.840;2022-11-15T03:18:00;4.53;;;3.37;;
12196;SDS011;6161;43.014;25.840;2022-11-15T03:20:27;4.73;;;3.27;;
12196;SDS011;6161;43.014;25.840;2022-11-15T03:22:53;4.03;;;3.33;;
12196;SDS011;6161;43.014;25.840;2022-11-15T03:25:19;4.23;;;3.53;;
12196;SDS011;6161;43.014;25.840;2022-11-15T03:27:48;4.63;;;3.37;;
12196;SDS011;6161;43.014;25.840;2022-11-15T03:30:14;4.10;;;3.43;;
12196;SDS011;6161;43.014;25.840;2022-11-15T03:32:51;4.37;;;3.20;;
12196;SDS011;6161;43.014;25.840;2022-11-15T03:35:20;7.60;;;3.67;;
12196;SDS011;6161;43.014;25.840;2022-11-15T03:38:02;4.33;;;3.10;;
12196;SDS011;6161;43.014;25.840;2022-11-15T03:40:33;4.50;;;3.10;;
12196;SDS011;6161;43.014;25.840;2022-11-15T03:45:41;4.90;;;3.47;;
12196;SDS011;6161;43.014;25.840;2022-11-15T03:48:16;4.03;;;3.30;;
12196;SDS011;6161;43.014;25.840;2022-11-15T03:50:42;5.10;;;3.70;;
12196;SDS011;6161;43.014;25.840;2022-11-15T03:53:08;6.27;;;3.57;;
12196;SDS011;6161;43.014;25.840;2022-11-15T03:55:34;4.00;;;3.10;;
12196;SDS011;6161;43.014;25.840;2022-11-15T03:58:00;4.07;;;3.00;;
12196;SDS011;6161;43.014;25.840;2022-11-15T04:00:26;4.47;;;3.07;;
12196;SDS011;6161;43.014;25.840;2022-11-15T04:02:51;5.17;;;3.03;;
12196;SDS011;6161;43.014;25.840;2022-11-15T04:05:16;4.37;;;3.30;;
12196;SDS011;6161;43.014;25.840;2022-11-15T04:07:42;4.03;;;3.03;;
12196;SDS011;6161;43.014;25.840;2022-11-15T04:10:08;4.80;;;3.20;;
12196;SDS011;6161;43.014;25.840;2022-11-15T04:12:35;7.63;;;3.70;;
12196;SDS011;6161;43.014;25.840;2022-11-15T04:15:02;5.40;;;3.43;;
12196;SDS011;6161;43.014;25.840;2022-11-15T04:17:35;5.43;;;3.37;;
12196;SDS011;6161;43.014;25.840;2022-11-15T04:20:02;5.63;;;3.23;;
12196;SDS011;6161;43.014;25.840;2022-11-15T04:22:45;4.37;;;3.00;;
12196;SDS011;6161;43.014;25.840;2022-11-15T04:25:29;4.53;;;3.30;;
12196;SDS011;6161;43.014;25.840;2022-11-15T04:27:55;4.50;;;3.30;;
12196;SDS011;6161;43.014;25.840;2022-11-15T04:30:20;4.20;;;3.33;;
12196;SDS011;6161;43.014;25.840;2022-11-15T04:32:45;5.70;;;3.77;;
12196;SDS011;6161;43.014;25.840;2022-11-15T04:35:14;4.17;;;3.13;;
12196;SDS011;6161;43.014;25.840;2022-11-15T04:37:39;6.97;;;3.53;;
12196;SDS011;6161;43.014;25.840;2022-11-15T04:40:04;8.97;;;3.50;;
12196;SDS011;6161;43.014;25.840;2022-11-15T04:42:30;5.93;;;3.17;;
12196;SDS011;6161;43.014;25.840;2022-11-15T04:44:55;3.70;;;3.13;;
12196;SDS011;6161;43.014;25.840;2022-11-15T04:47:21;5.17;;;3.40;;
12196;SDS011;6161;43.014;25.840;2022-11-15T04:49:46;6.37;;;3.37;;
12196;SDS011;6161;43.014;25.840;2022-11-15T04:52:11;3.60;;;3.23;;
12196;SDS011;6161;43.014;25.840;2022-11-15T04:54:36;4.77;;;3.10;;
12196;SDS011;6161;43.014;25.840;2022-11-15T04:57:02;6.43;;;4.00;;
12196;SDS011;6161;43.014;25.840;2022-11-15T04:59:27;5.07;;;3.63;;
12196;SDS011;6161;43.014;25.840;2022-11-15T05:01:52;4.60;;;3.30;;
12196;SDS011;6161;43.014;25.840;2022-11-15T05:04:17;5.90;;;3.40;;
12196;SDS011;6161;43.014;25.840;2022-11-15T05:06:49;7.17;;;3.60;;
12196;SDS011;6161;43.014;25.840;2022-11-15T05:09:15;4.97;;;3.40;;
12196;SDS011;6161;43.014;25.840;2022-11-15T05:11:40;6.50;;;3.63;;
12196;SDS011;6161;43.014;25.840;2022-11-15T05:14:06;4.97;;;3.30;;
12196;SDS011;6161;43.014;25.840;2022-11-15T05:16:32;4.93;;;3.07;;
12196;SDS011;6161;43.014;25.840;2022-11-15T05:18:57;5.47;;;3.87;;
12196;SDS011;6161;43.014;25.840;2022-11-15T05:21:22;5.70;;;3.47;;
12196;SDS011;6161;43.014;25.840;2022-11-15T05:23:48;6.17;;;3.60;;
12196;SDS011;6161;43.014;25.840;2022-11-15T05:26:13;4.57;;;3.17;;
12196;SDS011;6161;43.014;25.840;2022-11-15T05:28:39;4.17;;;3.07;;
12196;SDS011;6161;43.014;25.840;2022-11-15T05:31:09;6.27;;;3.37;;
12196;SDS011;6161;43.014;25.840;2022-11-15T05:33:37;4.77;;;3.13;;
12196;SDS011;6161;43.014;25.840;2022-11-15T05:36:15;7.30;;;3.80;;
12196;SDS011;6161;43.014;25.840;2022-11-15T05:38:42;6.53;;;4.00;;
12196;SDS011;6161;43.014;25.840;2022-11-15T05:41:08;3.53;;;3.07;;
12196;SDS011;6161;43.014;25.840;2022-11-15T05:43:34;7.07;;;3.97;;
12196;SDS011;6161;43.014;25.840;2022-11-15T05:46:00;6.40;;;4.37;;
12196;SDS011;6161;43.014;25.840;2022-11-15T05:48:26;9.00;;;4.93;;
12196;SDS011;6161;43.014;25.840;2022-11-15T05:50:52;8.40;;;5.20;;
12196;SDS011;6161;43.014;25.840;2022-11-15T05:53:18;9.03;;;5.90;;
12196;SDS011;6161;43.014;25.840;2022-11-15T05:55:44;16.23;;;9.13;;
12196;SDS011;6161;43.014;25.840;2022-11-15T05:58:09;13.77;;;9.43;;
12196;SDS011;6161;43.014;25.840;2022-11-15T06:00:35;9.57;;;6.40;;
12196;SDS011;6161;43.014;25.840;2022-11-15T06:03:00;19.03;;;10.67;;
12196;SDS011;6161;43.014;25.840;2022-11-15T06:05:25;16.80;;;10.00;;
12196;SDS011;6161;43.014;25.840;2022-11-15T06:07:50;14.83;;;8.93;;
12196;SDS011;6161;43.014;25.840;2022-11-15T06:10:16;14.73;;;9.03;;
12196;SDS011;6161;43.014;25.840;2022-11-15T06:12:44;12.17;;;8.20;;
12196;SDS011;6161;43.014;25.840;2022-11-15T06:15:10;9.70;;;6.77;;
12196;SDS011;6161;43.014;25.840;2022-11-15T06:17:35;9.43;;;6.93;;
12196;SDS011;6161;43.014;25.840;2022-11-15T06:20:00;9.27;;;5.93;;
12196;SDS011;6161;43.014;25.840;2022-11-15T06:22:25;7.97;;;5.80;;
12196;SDS011;6161;43.014;25.840;2022-11-15T06:24:51;14.23;;;9.83;;
12196;SDS011;6161;43.014;25.840;2022-11-15T06:27:16;10.63;;;6.53;;
12196;SDS011;6161;43.014;25.840;2022-11-15T06:29:41;11.97;;;7.00;;
12196;SDS011;6161;43.014;25.840;2022-11-15T06:32:06;10.43;;;6.87;;
12196;SDS011;6161;43.014;25.840;2022-11-15T06:34:32;10.10;;;6.13;;
12196;SDS011;6161;43.014;25.840;2022-11-15T06:37:03;9.40;;;5.90;;
12196;SDS011;6161;43.014;25.840;2022-11-15T06:39:28;11.17;;;6.60;;
12196;SDS011;6161;43.014;25.840;2022-11-15T06:41:54;13.23;;;8.10;;
12196;SDS011;6161;43.014;25.840;2022-11-15T06:44:19;11.20;;;6.47;;
12196;SDS011;6161;43.014;25.840;2022-11-15T06:46:48;11.03;;;8.87;;
12196;SDS011;6161;43.014;25.840;2022-11-15T06:49:13;16.20;;;6.37;;
12196;SDS011;6161;43.014;25.840;2022-11-15T06:51:38;11.93;;;6.63;;
12196;SDS011;6161;43.014;25.840;2022-11-15T06:54:03;9.23;;;6.63;;
12196;SDS011;6161;43.014;25.840;2022-11-15T06:56:29;9.33;;;6.40;;
12196;SDS011;6161;43.014;25.840;2022-11-15T06:58:54;10.93;;;6.00;;
12196;SDS011;6161;43.014;25.840;2022-11-15T07:01:20;11.20;;;6.50;;
12196;SDS011;6161;43.014;25.840;2022-11-15T07:03:45;10.83;;;6.80;;
12196;SDS011;6161;43.014;25.840;2022-11-15T07:06:11;9.83;;;6.30;;
12196;SDS011;6161;43.014;25.840;2022-11-15T07:08:36;10.57;;;7.03;;
12196;SDS011;6161;43.014;25.840;2022-11-15T07:11:03;11.10;;;6.50;;
12196;SDS011;6161;43.014;25.840;2022-11-15T07:13:29;10.53;;;6.57;;
12196;SDS011;6161;43.014;25.840;2022-11-15T07:16:01;11.13;;;7.00;;
12196;SDS011;6161;43.014;25.840;2022-11-15T07:18:26;13.10;;;7.53;;
12196;SDS011;6161;43.014;25.840;2022-11-15T07:20:52;11.73;;;6.43;;
12196;SDS011;6161;43.014;25.840;2022-11-15T07:23:17;12.57;;;7.27;;
12196;SDS011;6161;43.014;25.840;2022-11-15T07:25:43;8.90;;;6.27;;
12196;SDS011;6161;43.014;25.840;2022-11-15T07:28:08;10.80;;;6.80;;
12196;SDS011;6161;43.014;25.840;2022-11-15T07:30:33;12.03;;;6.90;;
12196;SDS011;6161;43.014;25.840;2022-11-15T07:32:59;9.10;;;6.57;;
12196;SDS011;6161;43.014;25.840;2022-11-15T07:35:25;12.43;;;6.17;;
12196;SDS011;6161;43.014;25.840;2022-11-15T07:40:20;10.47;;;6.50;;
12196;SDS011;6161;43.014;25.840;2022-11-15T07:42:45;11.17;;;7.10;;
12196;SDS011;6161;43.014;25.840;2022-11-15T07:45:21;9.00;;;6.73;;
12196;SDS011;6161;43.014;25.840;2022-11-15T07:47:47;9.67;;;6.60;;
12196;SDS011;6161;43.014;25.840;2022-11-15T07:50:12;9.60;;;6.10;;
12196;SDS011;6161;43.014;25.840;2022-11-15T07:52:38;8.90;;;6.43;;
12196;SDS011;6161;43.014;25.840;2022-11-15T07:55:03;11.77;;;6.80;;
12196;SDS011;6161;43.014;25.840;2022-11-15T07:57:29;10.67;;;6.40;;
12196;SDS011;6161;43.014;25.840;2022-11-15T07:59:54;10.73;;;6.30;;
12196;SDS011;6161;43.014;25.840;2022-11-15T08:02:19;10.60;;;6.03;;
12196;SDS011;6161;43.014;25.840;2022-11-15T08:04:45;15.77;;;6.77;;
12196;SDS011;6161;43.014;25.840;2022-11-15T08:07:10;11.50;;;7.07;;
12196;SDS011;6161;43.014;25.840;2022-11-15T08:09:35;12.67;;;7.90;;
12196;SDS011;6161;43.014;25.840;2022-11-15T08:12:01;11.83;;;7.07;;
12196;SDS011;6161;43.014;25.840;2022-11-15T08:14:26;9.57;;;6.43;;
12196;SDS011;6161;43.014;25.840;2022-11-15T08:16:51;11.13;;;6.03;;
12196;SDS011;6161;43.014;25.840;2022-11-15T08:19:17;10.10;;;5.90;;
12196;SDS011;6161;43.014;25.840;2022-11-15T08:21:45;9.20;;;5.77;;
12196;SDS011;6161;43.014;25.840;2022-11-15T08:24:10;10.57;;;6.20;;
12196;SDS011;6161;43.014;25.840;2022-11-15T08:26:36;11.23;;;7.47;;
12196;SDS011;6161;43.014;25.840;2022-11-15T08:29:01;19.17;;;10.70;;
12196;SDS011;6161;43.014;25.840;2022-11-15T08:31:26;14.17;;;9.57;;
12196;SDS011;6161;43.014;25.840;2022-11-15T08:33:52;11.13;;;7.30;;
12196;SDS011;6161;43.014;25.840;2022-11-15T08:36:17;10.87;;;7.47;;
12196;SDS011;6161;43.014;25.840;2022-11-15T08:38:42;25.10;;;14.47;;
12196;SDS011;6161;43.014;25.840;2022-11-15T08:41:16;11.00;;;6.97;;
12196;SDS011;6161;43.014;25.840;2022-11-15T08:43:43;12.03;;;6.23;;
12196;SDS011;6161;43.014;25.840;2022-11-15T08:46:10;25.80;;;23.03;;
12196;SDS011;6161;43.014;25.840;2022-11-15T08:48:36;14.30;;;8.70;;
12196;SDS011;6161;43.014;25.840;2022-11-15T08:51:01;10.43;;;6.10;;
12196;SDS011;6161;43.014;25.840;2022-11-15T08:53:26;14.60;;;6.37;;
12196;SDS011;6161;43.014;25.840;2022-11-15T08:55:52;11.10;;;6.53;;
12196;SDS011;6161;43.014;25.840;2022-11-15T08:58:17;11.03;;;5.77;;
12196;SDS011;6161;43.014;25.840;2022-11-15T09:00:42;9.90;;;6.20;;
12196;SDS011;6161;43.014;25.840;2022-11-15T09:03:07;14.67;;;6.47;;
12196;SDS011;6161;43.014;25.840;2022-11-15T09:05:35;12.23;;;7.30;;
12196;SDS011;6161;43.014;25.840;2022-11-15T09:08:01;9.70;;;6.93;;
12196;SDS011;6161;43.014;25.840;2022-11-15T09:10:26;8.47;;;5.97;;
12196;SDS011;6161;43.014;25.840;2022-11-15T09:12:51;10.03;;;5.93;;
12196;SDS011;6161;43.014;25.840;2022-11-15T09:15:16;10.73;;;6.10;;
12196;SDS011;6161;43.014;25.840;2022-11-15T09:17:42;8.53;;;6.13;;
12196;SDS011;6161;43.014;25.840;2022-11-15T09:20:07;9.43;;;6.33;;
12196;SDS011;6161;43.014;25.840;2022-11-15T09:22:33;10.07;;;6.73;;
12196;SDS011;6161;43.014;25.840;2022-11-15T09:24:59;11.77;;;6.30;;
12196;SDS011;6161;43.014;25.840;2022-11-15T09:27:28;8.30;;;5.77;;
12196;SDS011;6161;43.014;25.840;2022-11-15T09:29:53;11.20;;;6.83;;
12196;SDS011;6161;43.014;25.840;2022-11-15T09:32:18;8.80;;;5.43;;
12196;SDS011;6161;43.014;25.840;2022-11-15T09:34:44;9.10;;;6.00;;
12196;SDS011;6161;43.014;25.840;2022-11-15T09:37:09;10.80;;;6.87;;
12196;SDS011;6161;43.014;25.840;2022-11-15T09:39:34;10.57;;;6.47;;
12196;SDS011;6161;43.014;25.840;2022-11-15T09:49:57;8.50;;;5.07;;
12196;SDS011;6161;43.014;25.840;2022-11-15T09:52:23;9.57;;;5.73;;
12196;SDS011;6161;43.014;25.840;2022-11-15T09:54:49;8.23;;;5.40;;
12196;SDS011;6161;43.014;25.840;2022-11-15T09:57:16;8.40;;;5.30;;
12196;SDS011;6161;43.014;25.840;2022-11-15T09:59:49;8.63;;;6.50;;
12196;SDS011;6161;43.014;25.840;2022-11-15T10:04:49;7.70;;;5.10;;
12196;SDS011;6161;43.014;25.840;2022-11-15T10:07:19;7.50;;;5.87;;
12196;SDS011;6161;43.014;25.840;2022-11-15T10:12:17;10.10;;;6.00;;
12196;SDS011;6161;43.014;25.840;2022-11-15T10:14:43;7.67;;;5.20;;
12196;SDS011;6161;43.014;25.840;2022-11-15T10:19:56;16.93;;;8.40;;
12196;SDS011;6161;43.014;25.840;2022-11-15T10:22:30;9.40;;;6.03;;
12196;SDS011;6161;43.014;25.840;2022-11-15T10:27:33;6.20;;;4.60;;
12196;SDS011;6161;43.014;25.840;2022-11-15T10:29:59;9.10;;;6.10;;
12196;SDS011;6161;43.014;25.840;2022-11-15T10:32:24;10.37;;;5.53;;
12196;SDS011;6161;43.014;25.840;2022-11-15T10:34:50;6.73;;;4.43;;
12196;SDS011;6161;43.014;25.840;2022-11-15T10:37:29;7.37;;;5.03;;
12196;SDS011;6161;43.014;25.840;2022-11-15T10:40:14;9.90;;;5.67;;
12196;SDS011;6161;43.014;25.840;2022-11-15T10:42:40;7.03;;;5.50;;
12196;SDS011;6161;43.014;25.840;2022-11-15T10:45:25;7.00;;;4.97;;
12196;SDS011;6161;43.014;25.840;2022-11-15T10:47:50;7.13;;;5.10;;
12196;SDS011;6161;43.014;25.840;2022-11-15T10:50:26;8.20;;;5.60;;
12196;SDS011;6161;43.014;25.840;2022-11-15T10:52:52;8.30;;;5.67;;
12196;SDS011;6161;43.014;25.840;2022-11-15T10:57:48;7.43;;;5.20;;
12196;SDS011;6161;43.014;25.840;2022-11-15T11:03:08;7.77;;;4.17;;
12196;SDS011;6161;43.014;25.840;2022-11-15T11:05:37;6.97;;;4.63;;
12196;SDS011;6161;43.014;25.840;2022-11-15T11:10:37;8.47;;;4.30;;
12196;SDS011;6161;43.014;25.840;2022-11-15T11:13:12;7.77;;;6.90;;
12196;SDS011;6161;43.014;25.840;2022-11-15T11:15:38;7.03;;;5.40;;
12196;SDS011;6161;43.014;25.840;2022-11-15T11:18:08;7.43;;;5.17;;
12196;SDS011;6161;43.014;25.840;2022-11-15T11:20:41;11.17;;;5.27;;
12196;SDS011;6161;43.014;25.840;2022-11-15T11:23:18;7.93;;;5.33;;
12196;SDS011;6161;43.014;25.840;2022-11-15T11:28:21;7.10;;;5.03;;
12196;SDS011;6161;43.014;25.840;2022-11-15T11:33:22;8.30;;;4.97;;
12196;SDS011;6161;43.014;25.840;2022-11-15T11:35:59;8.10;;;5.20;;
12196;SDS011;6161;43.014;25.840;2022-11-15T11:38:39;7.93;;;5.80;;
12196;SDS011;6161;43.014;25.840;2022-11-15T11:41:10;8.37;;;5.27;;
12196;SDS011;6161;43.014;25.840;2022-11-15T11:43:41;6.50;;;4.70;;
12196;SDS011;6161;43.014;25.840;2022-11-15T11:48:42;5.67;;;4.40;;
12196;SDS011;6161;43.014;25.840;2022-11-15T11:51:32;7.70;;;5.03;;
12196;SDS011;6161;43.014;25.840;2022-11-15T11:53:55;6.20;;;4.50;;
12196;SDS011;6161;43.014;25.840;2022-11-15T11:56:26;7.50;;;4.40;;
12196;SDS011;6161;43.014;25.840;2022-11-15T11:58:53;5.87;;;4.37;;
12196;SDS011;6161;43.014;25.840;2022-11-15T12:01:22;6.73;;;4.90;;
12196;SDS011;6161;43.014;25.840;2022-11-15T12:08:47;6.77;;;4.23;;
12196;SDS011;6161;43.014;25.840;2022-11-15T12:11:16;7.97;;;4.70;;
12196;SDS011;6161;43.014;25.840;2022-11-15T12:13:43;7.53;;;5.07;;
12196;SDS011;6161;43.014;25.840;2022-11-15T12:16:14;9.90;;;5.47;;
12196;SDS011;6161;43.014;25.840;2022-11-15T12:18:42;8.07;;;5.17;;
12196;SDS011;6161;43.014;25.840;2022-11-15T12:21:14;8.30;;;4.83;;
12196;SDS011;6161;43.014;25.840;2022-11-15T12:23:44;8.60;;;5.07;;
12196;SDS011;6161;43.014;25.840;2022-11-15T12:26:14;7.57;;;4.93;;
12196;SDS011;6161;43.014;25.840;2022-11-15T12:33:45;7.53;;;4.93;;
12196;SDS011;6161;43.014;25.840;2022-11-15T12:41:19;6.50;;;4.90;;
12196;SDS011;6161;43.014;25.840;2022-11-15T12:43:45;6.17;;;4.50;;
12196;SDS011;6161;43.014;25.840;2022-11-15T12:46:19;8.47;;;5.03;;
12196;SDS011;6161;43.014;25.840;2022-11-15T12:48:52;7.00;;;4.83;;
12196;SDS011;6161;43.014;25.840;2022-11-15T12:54:12;5.43;;;4.77;;
12196;SDS011;6161;43.014;25.840;2022-11-15T13:04:48;6.73;;;4.73;;
12196;SDS011;6161;43.014;25.840;2022-11-15T13:09:58;9.13;;;5.27;;
12196;SDS011;6161;43.014;25.840;2022-11-15T13:14:57;5.80;;;4.53;;
12196;SDS011;6161;43.014;25.840;2022-11-15T13:27:47;7.30;;;5.00;;
12196;SDS011;6161;43.014;25.840;2022-11-15T13:30:16;7.40;;;4.87;;
12196;SDS011;6161;43.014;25.840;2022-11-15T13:32:44;6.17;;;4.73;;
12196;SDS011;6161;43.014;25.840;2022-11-15T13:35:09;7.80;;;4.87;;
12196;SDS011;6161;43.014;25.840;2022-11-15T13:37:34;5.97;;;4.40;;
12196;SDS011;6161;43.014;25.840;2022-11-15T13:40:15;7.93;;;4.83;;
12196;SDS011;6161;43.014;25.840;2022-11-15T13:42:40;6.17;;;4.50;;
12196;SDS011;6161;43.014;25.840;2022-11-15T13:45:11;6.57;;;3.93;;
12196;SDS011;6161;43.014;25.840;2022-11-15T13:47:37;7.30;;;4.37;;
12196;SDS011;6161;43.014;25.840;2022-11-15T13:50:02;5.37;;;4.37;;
12196;SDS011;6161;43.014;25.840;2022-11-15T13:52:30;7.63;;;5.03;;
12196;SDS011;6161;43.014;25.840;2022-11-15T13:55:30;5.90;;;4.20;;
12196;SDS011;6161;43.014;25.840;2022-11-15T13:57:49;9.57;;;6.30;;
12196;SDS011;6161;43.014;25.840;2022-11-15T14:05:40;6.27;;;4.70;;
12196;SDS011;6161;43.014;25.840;2022-11-15T14:10:43;7.50;;;4.53;;
12196;SDS011;6161;43.014;25.840;2022-11-15T14:13:28;7.37;;;4.90;;
12196;SDS011;6161;43.014;25.840;2022-11-15T14:21:08;8.50;;;4.53;;
12196;SDS011;6161;43.014;25.840;2022-11-15T14:23:33;6.67;;;4.53;;
12196;SDS011;6161;43.014;25.840;2022-11-15T14:26:00;8.73;;;5.03;;
12196;SDS011;6161;43.014;25.840;2022-11-15T14:30:53;7.33;;;4.30;;
12196;SDS011;6161;43.014;25.840;2022-11-15T14:35:44;7.00;;;5.10;;
12196;SDS011;6161;43.014;25.840;2022-11-15T14:38:10;5.57;;;4.50;;
12196;SDS011;6161;43.014;25.840;2022-11-15T14:40:35;14.97;;;8.57;;
12196;SDS011;6161;43.014;25.840;2022-11-15T14:43:00;17.53;;;9.90;;
12196;SDS011;6161;43.014;25.840;2022-11-15T14:45:26;24.23;;;14.70;;
12196;SDS011;6161;43.014;25.840;2022-11-15T14:47:51;13.47;;;9.03;;
12196;SDS011;6161;43.014;25.840;2022-11-15T14:50:18;9.67;;;7.13;;
12196;SDS011;6161;43.014;25.840;2022-11-15T14:52:43;7.00;;;4.63;;
12196;SDS011;6161;43.014;25.840;2022-11-15T14:55:16;8.10;;;5.73;;
12196;SDS011;6161;43.014;25.840;2022-11-15T14:57:43;6.93;;;4.77;;
12196;SDS011;6161;43.014;25.840;2022-11-15T15:00:08;6.83;;;4.70;;
12196;SDS011;6161;43.014;25.840;2022-11-15T15:02:35;5.97;;;4.67;;
12196;SDS011;6161;43.014;25.840;2022-11-15T15:05:00;8.47;;;6.53;;
12196;SDS011;6161;43.014;25.840;2022-11-15T15:07:28;10.40;;;7.17;;
12196;SDS011;6161;43.014;25.840;2022-11-15T15:09:53;9.20;;;6.37;;
12196;SDS011;6161;43.014;25.840;2022-11-15T15:12:20;7.47;;;4.80;;
12196;SDS011;6161;43.014;25.840;2022-11-15T15:14:46;5.90;;;4.60;;
12196;SDS011;6161;43.014;25.840;2022-11-15T15:17:12;5.67;;;4.07;;
12196;SDS011;6161;43.014;25.840;2022-11-15T15:19:38;6.63;;;4.93;;
12196;SDS011;6161;43.014;25.840;2022-11-15T15:22:03;12.00;;;3.90;;
12196;SDS011;6161;43.014;25.840;2022-11-15T15:24:28;5.30;;;4.60;;
12196;SDS011;6161;43.014;25.840;2022-11-15T15:26:54;7.70;;;5.43;;
12196;SDS011;6161;43.014;25.840;2022-11-15T15:29:19;6.47;;;4.37;;
12196;SDS011;6161;43.014;25.840;2022-11-15T15:31:44;6.57;;;4.43;;
12196;SDS011;6161;43.014;25.840;2022-11-15T15:34:09;6.20;;;3.90;;
12196;SDS011;6161;43.014;25.840;2022-11-15T15:36:35;5.67;;;4.23;;
12196;SDS011;6161;43.014;25.840;2022-11-15T15:39:00;7.37;;;4.67;;
12196;SDS011;6161;43.014;25.840;2022-11-15T15:41:25;6.13;;;4.40;;
12196;SDS011;6161;43.014;25.840;2022-11-15T15:43:51;6.80;;;4.67;;
12196;SDS011;6161;43.014;25.840;2022-11-15T15:46:18;7.37;;;5.13;;
12196;SDS011;6161;43.014;25.840;2022-11-15T15:48:44;7.67;;;5.07;;
12196;SDS011;6161;43.014;25.840;2022-11-15T15:51:09;7.53;;;4.83;;
12196;SDS011;6161;43.014;25.840;2022-11-15T15:53:34;8.10;;;5.20;;
12196;SDS011;6161;43.014;25.840;2022-11-15T15:56:00;6.03;;;5.17;;
12196;SDS011;6161;43.014;25.840;2022-11-15T15:58:25;6.60;;;4.80;;
12196;SDS011;6161;43.014;25.840;2022-11-15T16:00:50;7.03;;;4.87;;
12196;SDS011;6161;43.014;25.840;2022-11-15T16:03:16;10.73;;;5.10;;
12196;SDS011;6161;43.014;25.840;2022-11-15T16:05:41;9.23;;;5.03;;
12196;SDS011;6161;43.014;25.840;2022-11-15T16:08:14;8.10;;;5.00;;
12196;SDS011;6161;43.014;25.840;2022-11-15T16:10:41;8.63;;;5.60;;
12196;SDS011;6161;43.014;25.840;2022-11-15T16:13:07;6.47;;;4.50;;
12196;SDS011;6161;43.014;25.840;2022-11-15T16:15:32;7.40;;;4.63;;
12196;SDS011;6161;43.014;25.840;2022-11-15T16:17:58;6.83;;;5.00;;
12196;SDS011;6161;43.014;25.840;2022-11-15T16:22:59;7.13;;;5.10;;
12196;SDS011;6161;43.014;25.840;2022-11-15T16:25:25;6.20;;;4.37;;
12196;SDS011;6161;43.014;25.840;2022-11-15T16:27:50;8.77;;;5.43;;
12196;SDS011;6161;43.014;25.840;2022-11-15T16:30:16;8.00;;;5.23;;
12196;SDS011;6161;43.014;25.840;2022-11-15T16:32:42;8.93;;;4.93;;
12196;SDS011;6161;43.014;25.840;2022-11-15T16:35:10;7.47;;;5.10;;
12196;SDS011;6161;43.014;25.840;2022-11-15T16:37:35;6.20;;;4.80;;
12196;SDS011;6161;43.014;25.840;2022-11-15T16:40:00;6.70;;;5.23;;
12196;SDS011;6161;43.014;25.840;2022-11-15T16:42:26;7.87;;;4.93;;
12196;SDS011;6161;43.014;25.840;2022-11-15T16:44:51;6.87;;;4.90;;
12196;SDS011;6161;43.014;25.840;2022-11-15T16:47:17;6.90;;;4.23;;
12196;SDS011;6161;43.014;25.840;2022-11-15T16:49:43;6.53;;;4.27;;
12196;SDS011;6161;43.014;25.840;2022-11-15T16:52:09;10.73;;;4.60;;
12196;SDS011;6161;43.014;25.840;2022-11-15T16:54:34;8.50;;;4.57;;
12196;SDS011;6161;43.014;25.840;2022-11-15T16:56:59;6.23;;;3.93;;
12196;SDS011;6161;43.014;25.840;2022-11-15T16:59:25;7.53;;;4.47;;